createdAt,value
2023-02-15T00:01:51.105Z,84.24
2023-02-15T00:04:46.484Z,84.18
2023-02-15T00:07:18.843Z,83.99
2023-02-15T00:09:49.906Z,84.01
2023-02-15T00:12:22.480Z,84.05
2023-02-15T00:14:52.528Z,83.81
2023-02-15T00:17:22.627Z,84.02
2023-02-15T00:19:53.022Z,84.06
2023-02-15T00:22:23.869Z,84.10
2023-02-15T00:24:54.307Z,84.09
2023-02-15T00:27:27.343Z,84.09
2023-02-15T00:29:57.562Z,84.26
2023-02-15T00:32:27.617Z,84.26
2023-02-15T00:34:57.615Z,84.33
2023-02-15T00:37:28.022Z,84.23
2023-02-15T00:39:58.523Z,84.29
2023-02-15T00:42:31.576Z,84.47
2023-02-15T00:45:01.462Z,84.24
2023-02-15T00:47:32.257Z,84.34
2023-02-15T00:50:04.351Z,84.45
2023-02-15T00:52:34.291Z,84.20
2023-02-15T00:55:07.013Z,84.44
2023-02-15T00:57:39.651Z,84.36
2023-02-15T01:00:11.270Z,84.34
2023-02-15T01:02:41.355Z,84.17
2023-02-15T01:05:11.400Z,84.18
2023-02-15T01:07:41.413Z,84.25
2023-02-15T01:10:12.040Z,84.21
2023-02-15T01:12:44.782Z,84.53
2023-02-15T01:15:14.691Z,84.38
2023-02-15T01:17:46.885Z,84.54
2023-02-15T01:20:16.979Z,84.36
2023-02-15T01:22:47.214Z,84.70
2023-02-15T01:25:17.210Z,84.58
2023-02-15T01:27:50.106Z,84.61
2023-02-15T01:30:20.605Z,84.83
2023-02-15T01:32:51.238Z,84.72
2023-02-15T01:35:21.357Z,84.76
2023-02-15T01:37:51.535Z,84.52
2023-02-15T01:40:23.619Z,84.48
2023-02-15T01:42:57.945Z,84.54
2023-02-15T01:45:28.877Z,84.52
2023-02-15T01:48:04.133Z,84.67
2023-02-15T01:50:37.180Z,84.33
2023-02-15T01:53:19.583Z,84.35
2023-02-15T01:55:54.212Z,84.26
2023-02-15T01:58:30.182Z,84.33
2023-02-15T02:01:04.608Z,84.32
2023-02-15T02:03:39.470Z,84.37
2023-02-15T02:06:09.440Z,84.46
2023-02-15T02:08:39.648Z,84.43
2023-02-15T02:11:14.298Z,84.65
2023-02-15T02:13:49.032Z,84.61
2023-02-15T02:16:25.819Z,84.77
2023-02-15T02:19:21.060Z,84.82
2023-02-15T02:22:26.364Z,84.75
2023-02-15T02:25:16.375Z,84.85
2023-02-15T02:27:51.829Z,84.64
2023-02-15T02:30:53.092Z,84.55
2023-02-15T02:33:47.851Z,84.59
2023-02-15T02:36:24.015Z,84.71
2023-02-15T02:39:07.523Z,84.53
2023-02-15T02:41:46.783Z,84.59
2023-02-15T02:44:24.811Z,84.68
2023-02-15T02:46:57.239Z,84.47
2023-02-15T02:49:41.251Z,84.63
2023-02-15T02:52:42.207Z,84.73
2023-02-15T02:55:17.227Z,84.70
2023-02-15T02:57:55.698Z,84.66
2023-02-15T03:00:29.276Z,84.60
2023-02-15T03:03:06.413Z,84.58
2023-02-15T03:05:44.306Z,84.43
2023-02-15T03:08:22.932Z,84.48
2023-02-15T03:10:57.077Z,84.90
2023-02-15T03:13:28.295Z,84.99
2023-02-15T03:16:12.893Z,84.73
2023-02-15T03:18:45.056Z,84.99
2023-02-15T03:21:23.288Z,85.02
2023-02-15T03:23:58.143Z,85.20
2023-02-15T03:26:29.993Z,85.10
2023-02-15T03:29:04.281Z,84.83
2023-02-15T03:31:39.111Z,85.03
2023-02-15T03:34:14.900Z,85.17
2023-02-15T03:36:51.131Z,85.12
2023-02-15T03:39:29.497Z,85.10
2023-02-15T03:42:03.849Z,85.12
2023-02-15T03:44:35.991Z,85.03
2023-02-15T03:47:10.442Z,84.78
2023-02-15T03:49:46.687Z,84.81
2023-02-15T03:52:18.645Z,84.89
2023-02-15T03:54:49.849Z,84.58
2023-02-15T03:57:36.153Z,84.72
2023-02-15T04:00:25.744Z,84.96
2023-02-15T04:03:11.667Z,84.78
2023-02-15T04:05:42.392Z,84.81
2023-02-15T04:08:15.790Z,84.59
2023-02-15T04:10:57.232Z,84.92
2023-02-15T04:13:36.702Z,84.75
2023-02-15T04:16:05.596Z,84.64
2023-02-15T04:18:51.332Z,84.87
2023-02-15T04:21:34.764Z,84.82
2023-02-15T04:24:20.321Z,84.97
2023-02-15T04:26:53.836Z,85.13
2023-02-15T04:29:24.492Z,85.13
2023-02-15T04:31:55.713Z,85.20
2023-02-15T04:34:26.301Z,85.32
2023-02-15T04:36:56.304Z,85.10
2023-02-15T04:39:28.864Z,85.24
2023-02-15T04:41:58.761Z,85.29
2023-02-15T04:44:28.790Z,85.06
2023-02-15T04:46:58.878Z,85.31
2023-02-15T04:49:28.808Z,85.33
2023-02-15T04:51:58.741Z,85.27
2023-02-15T04:54:31.389Z,85.35
2023-02-15T04:57:01.326Z,85.38
2023-02-15T04:59:34.907Z,85.76
2023-02-15T05:02:05.008Z,85.58
2023-02-15T05:04:35.230Z,85.50
2023-02-15T05:07:07.705Z,85.64
2023-02-15T05:09:43.145Z,85.60
2023-02-15T05:12:19.731Z,85.74
2023-02-15T05:14:51.779Z,85.70
2023-02-15T05:17:21.741Z,85.64
2023-02-15T05:19:51.849Z,85.80
2023-02-15T05:22:21.952Z,85.74
2023-02-15T05:25:07.098Z,85.93
2023-02-15T05:28:15.969Z,85.58
2023-02-15T05:30:46.836Z,85.61
2023-02-15T05:33:21.842Z,85.69
2023-02-15T05:35:54.865Z,85.92
2023-02-15T05:38:25.173Z,86.15
2023-02-15T05:41:00.465Z,85.84
2023-02-15T05:43:31.961Z,85.81
2023-02-15T05:46:15.657Z,86.06
2023-02-15T05:48:48.722Z,85.68
2023-02-15T05:51:20.877Z,85.46
2023-02-15T05:53:52.506Z,85.25
2023-02-15T05:56:25.916Z,85.21
2023-02-15T05:58:57.571Z,85.08
2023-02-15T06:01:27.573Z,84.90
2023-02-15T06:03:57.843Z,84.89
2023-02-15T06:06:27.705Z,85.05
2023-02-15T06:08:57.549Z,85.04
2023-02-15T06:11:30.109Z,85.16
2023-02-15T06:14:00.114Z,84.96
2023-02-15T06:16:30.080Z,85.09
2023-02-15T06:19:00.666Z,84.79
2023-02-15T06:21:30.621Z,84.80
2023-02-15T06:24:00.783Z,84.65
2023-02-15T06:26:33.810Z,84.73
2023-02-15T06:29:04.281Z,84.46
2023-02-15T06:31:34.436Z,84.53
2023-02-15T06:34:05.280Z,84.54
2023-02-15T06:36:35.645Z,84.72
2023-02-15T06:39:06.035Z,84.53
2023-02-15T06:41:38.714Z,84.78
2023-02-15T06:44:08.867Z,84.74
2023-02-15T06:46:39.468Z,84.44
2023-02-15T06:49:10.038Z,84.64
2023-02-15T06:51:40.137Z,84.61
2023-02-15T06:54:10.104Z,84.70
2023-02-15T06:56:43.175Z,84.81
2023-02-15T06:59:13.409Z,84.64
2023-02-15T07:01:43.620Z,84.62
2023-02-15T07:04:13.739Z,84.61
2023-02-15T07:06:43.728Z,84.58
2023-02-15T07:09:13.804Z,84.54
2023-02-15T07:11:58.901Z,84.45
2023-02-15T07:14:29.137Z,84.40
2023-02-15T07:16:59.088Z,84.27
2023-02-15T07:19:29.166Z,84.08
2023-02-15T07:21:59.131Z,84.27
2023-02-15T07:24:29.450Z,84.21
2023-02-15T07:27:02.070Z,84.25
2023-02-15T07:29:31.940Z,84.08
2023-02-15T07:32:07.183Z,83.89
2023-02-15T07:34:37.295Z,83.87
2023-02-15T07:37:07.409Z,83.66
2023-02-15T07:39:37.410Z,83.81
2023-02-15T07:42:09.936Z,83.64
2023-02-15T07:44:40.793Z,83.51
2023-02-15T07:47:13.988Z,83.40
2023-02-15T07:49:45.104Z,83.26
2023-02-15T07:52:15.109Z,82.91
2023-02-15T07:54:44.915Z,83.18
2023-02-15T07:57:17.421Z,83.12
2023-02-15T07:59:47.278Z,82.80
2023-02-15T08:02:18.465Z,82.63
2023-02-15T08:04:48.528Z,82.98
2023-02-15T08:07:18.628Z,82.70
2023-02-15T08:09:48.558Z,82.69
2023-02-15T08:12:21.064Z,82.58
2023-02-15T08:14:51.088Z,82.68
2023-02-15T08:17:21.104Z,82.29
2023-02-15T08:19:51.168Z,82.32
2023-02-15T08:22:21.161Z,82.34
2023-02-15T08:24:51.364Z,82.00
2023-02-15T08:27:27.807Z,81.82
2023-02-15T08:29:57.753Z,82.06
2023-02-15T08:32:27.761Z,82.01
2023-02-15T08:34:57.835Z,81.82
2023-02-15T08:37:27.820Z,81.62
2023-02-15T08:39:57.843Z,81.65
2023-02-15T08:42:31.276Z,81.71
2023-02-15T08:45:01.240Z,81.30
2023-02-15T08:47:31.494Z,81.25
2023-02-15T08:50:01.763Z,81.21
2023-02-15T08:52:32.013Z,81.19
2023-02-15T08:55:02.121Z,81.10
2023-02-15T08:57:34.782Z,80.66
2023-02-15T09:00:05.846Z,80.88
2023-02-15T09:02:36.352Z,80.79
2023-02-15T09:05:06.790Z,80.67
2023-02-15T09:07:36.840Z,80.55
2023-02-15T09:10:07.326Z,80.63
2023-02-15T09:12:39.927Z,80.66
2023-02-15T09:15:11.970Z,80.47
2023-02-15T09:17:41.977Z,79.90
2023-02-15T09:20:13.153Z,80.45
2023-02-15T09:22:43.233Z,80.22
2023-02-15T09:25:14.657Z,80.57
2023-02-15T09:27:47.580Z,80.48
2023-02-15T09:30:18.171Z,80.54
2023-02-15T09:32:48.357Z,80.94
2023-02-15T09:35:18.487Z,80.83
2023-02-15T09:37:48.501Z,80.60
2023-02-15T09:40:21.457Z,80.64
2023-02-15T09:43:16.644Z,80.58
2023-02-15T09:46:01.261Z,80.20
2023-02-15T09:48:54.329Z,79.83
2023-02-15T09:52:00.079Z,79.77
2023-02-15T09:54:48.683Z,79.71
2023-02-15T09:57:28.566Z,79.54
2023-02-15T10:00:10.453Z,79.34
2023-02-15T10:03:00.370Z,78.97
2023-02-15T10:05:42.675Z,79.30
2023-02-15T10:08:44.676Z,79.57
2023-02-15T10:11:38.503Z,79.69
2023-02-15T10:14:22.646Z,79.39
2023-02-15T10:17:05.968Z,79.10
2023-02-15T10:19:44.904Z,79.07
2023-02-15T10:22:31.919Z,79.22
2023-02-15T10:25:18.867Z,79.22
2023-02-15T10:27:51.232Z,78.84
2023-02-15T10:30:27.884Z,79.04
2023-02-15T10:33:04.249Z,78.56
2023-02-15T10:35:48.201Z,78.65
2023-02-15T10:38:28.874Z,79.04
2023-02-15T10:41:12.912Z,78.65
2023-02-15T10:44:00.670Z,78.62
2023-02-15T10:46:54.077Z,78.38
2023-02-15T10:49:43.426Z,78.34
2023-02-15T10:52:30.406Z,77.96
2023-02-15T10:55:11.434Z,78.29
2023-02-15T10:57:50.647Z,78.44
2023-02-15T11:00:30.051Z,78.67
2023-02-15T11:03:16.605Z,78.37
2023-02-15T11:06:00.720Z,78.29
2023-02-15T11:08:35.611Z,77.83
2023-02-15T11:11:09.337Z,77.73
2023-02-15T11:13:46.936Z,77.80
2023-02-15T11:16:20.421Z,77.68
2023-02-15T11:18:57.362Z,77.50
2023-02-15T11:21:33.567Z,77.28
2023-02-15T11:24:04.076Z,77.32
2023-02-15T11:26:38.382Z,77.57
2023-02-15T11:29:12.380Z,77.13
2023-02-15T11:31:48.694Z,76.94
2023-02-15T11:34:26.125Z,77.17
2023-02-15T11:37:02.424Z,77.31
2023-02-15T11:39:34.817Z,77.08
2023-02-15T11:42:10.577Z,77.24
2023-02-15T11:44:45.388Z,76.92
2023-02-15T11:47:15.815Z,77.15
2023-02-15T11:49:45.775Z,77.28
2023-02-15T11:52:21.724Z,77.25
2023-02-15T11:54:54.935Z,77.34
2023-02-15T11:57:30.661Z,77.15
2023-02-15T12:00:06.046Z,77.30
2023-02-15T12:02:41.204Z,77.18
2023-02-15T12:05:20.149Z,77.04
2023-02-15T12:07:59.039Z,77.03
2023-02-15T12:10:32.229Z,76.89
2023-02-15T12:13:14.859Z,77.06
2023-02-15T12:15:49.933Z,76.93
2023-02-15T12:18:28.512Z,76.96
2023-02-15T12:21:04.530Z,76.85
2023-02-15T12:23:39.465Z,76.51
2023-02-15T12:26:09.606Z,76.54
2023-02-15T12:28:43.282Z,76.56
2023-02-15T12:31:24.884Z,76.24
2023-02-15T12:33:58.417Z,76.17
2023-02-15T12:36:32.874Z,76.38
2023-02-15T12:39:22.332Z,76.31
2023-02-15T12:42:09.095Z,76.34
2023-02-15T12:44:41.304Z,76.44
2023-02-15T12:47:28.977Z,76.44
2023-02-15T12:50:17.941Z,76.56
2023-02-15T12:52:51.343Z,76.47
2023-02-15T12:55:30.917Z,76.40
2023-02-15T12:58:12.374Z,76.27
2023-02-15T13:00:42.874Z,75.93
2023-02-15T13:03:21.396Z,75.98
2023-02-15T13:05:55.667Z,75.63
2023-02-15T13:08:29.604Z,74.17
2023-02-15T13:11:05.819Z,75.40
2023-02-15T13:13:39.598Z,75.74
2023-02-15T13:16:15.364Z,75.71
2023-02-15T13:18:48.554Z,75.69
2023-02-15T13:21:22.289Z,75.89
2023-02-15T13:23:57.962Z,75.80
2023-02-15T13:26:36.425Z,75.82
2023-02-15T13:29:12.462Z,75.51
2023-02-15T13:31:43.734Z,75.31
2023-02-15T13:34:20.196Z,75.08
2023-02-15T13:36:58.114Z,75.12
2023-02-15T13:39:34.208Z,75.44
2023-02-15T13:42:24.365Z,75.36
2023-02-15T13:45:13.099Z,75.38
2023-02-15T13:47:54.102Z,75.44
2023-02-15T13:50:46.279Z,75.29
2023-02-15T13:53:31.398Z,75.45
2023-02-15T13:56:09.379Z,75.00
2023-02-15T13:59:07.004Z,75.27
2023-02-15T14:01:44.575Z,75.47
2023-02-15T14:04:38.433Z,75.61
2023-02-15T14:07:22.599Z,75.70
2023-02-15T14:10:06.644Z,75.82
2023-02-15T14:12:47.792Z,75.76
2023-02-15T14:15:46.653Z,75.93
2023-02-15T14:18:43.864Z,76.11
2023-02-15T14:21:19.983Z,76.01
2023-02-15T14:24:04.731Z,76.05
2023-02-15T14:26:44.060Z,75.87
2023-02-15T14:29:24.668Z,75.95
2023-02-15T14:32:01.538Z,75.57
2023-02-15T14:34:40.801Z,75.63
2023-02-15T14:37:14.586Z,75.03
2023-02-15T14:40:04.038Z,74.85
2023-02-15T14:42:42.902Z,74.93
2023-02-15T14:45:23.179Z,74.88
2023-02-15T14:48:01.741Z,74.15
2023-02-15T14:50:45.884Z,74.43
2023-02-15T14:53:39.555Z,74.18
2023-02-15T14:56:25.513Z,74.83
2023-02-15T14:59:23.505Z,75.14
2023-02-15T15:01:59.429Z,75.35
2023-02-15T15:04:36.444Z,75.78
2023-02-15T15:07:16.456Z,75.80
2023-02-15T15:09:49.853Z,75.87
2023-02-15T15:12:44.224Z,76.04
2023-02-15T15:15:36.210Z,75.94
2023-02-15T15:18:07.533Z,76.08
2023-02-15T15:20:51.826Z,75.97
2023-02-15T15:23:42.154Z,76.20
2023-02-15T15:26:30.329Z,76.27
2023-02-15T15:29:02.710Z,76.63
2023-02-15T15:31:45.400Z,76.51
2023-02-15T15:34:31.904Z,76.39
2023-02-15T15:37:34.491Z,76.54
2023-02-15T15:40:44.716Z,76.53
2023-02-15T15:43:41.748Z,76.70
2023-02-15T15:46:26.048Z,76.63
2023-02-15T15:48:56.555Z,76.85
2023-02-15T15:51:34.210Z,76.58
2023-02-15T15:54:05.694Z,76.81
2023-02-15T15:56:40.697Z,76.46
2023-02-15T15:59:18.591Z,76.28
2023-02-15T16:01:50.933Z,76.23
2023-02-15T16:04:30.943Z,76.29
2023-02-15T16:07:01.376Z,76.74
2023-02-15T16:09:31.906Z,76.78
2023-02-15T16:12:06.474Z,76.76
2023-02-15T16:14:40.487Z,77.08
2023-02-15T16:17:20.336Z,77.24
2023-02-15T16:19:53.327Z,77.54
2023-02-15T16:22:26.387Z,77.88
2023-02-15T16:25:19.108Z,77.95
2023-02-15T16:27:52.743Z,78.04
2023-02-15T16:30:27.547Z,78.37
2023-02-15T16:33:06.618Z,78.55
2023-02-15T16:35:37.675Z,78.56
2023-02-15T16:38:08.445Z,78.75
2023-02-15T16:40:53.531Z,78.84
2023-02-15T16:43:30.459Z,78.74
2023-02-15T16:46:08.252Z,78.74
2023-02-15T16:48:45.460Z,78.92
2023-02-15T16:51:26.454Z,78.84
2023-02-15T16:53:59.411Z,78.99
2023-02-15T16:56:31.893Z,78.97
2023-02-15T16:59:05.594Z,79.12
2023-02-15T17:01:36.774Z,79.28
2023-02-15T17:04:25.717Z,79.11
2023-02-15T17:07:02.898Z,79.21
2023-02-15T17:09:33.209Z,79.21
2023-02-15T17:12:04.040Z,79.03
2023-02-15T17:14:42.889Z,79.17
2023-02-15T17:17:18.136Z,79.05
2023-02-15T17:19:53.476Z,79.07
2023-02-15T17:22:27.948Z,79.11
2023-02-15T17:25:04.038Z,78.75
2023-02-15T17:27:36.318Z,78.72
2023-02-15T17:30:20.367Z,78.85
2023-02-15T17:32:57.690Z,78.73
2023-02-15T17:35:28.751Z,78.77
2023-02-15T17:38:07.869Z,78.81
2023-02-15T17:40:39.430Z,78.93
2023-02-15T17:43:09.337Z,78.85
2023-02-15T17:45:48.253Z,78.87
2023-02-15T17:48:24.144Z,79.08
2023-02-15T17:50:54.316Z,78.85
2023-02-15T17:53:24.463Z,78.82
2023-02-15T17:55:51.896Z,79.09
2023-02-15T17:58:23.673Z,78.74
2023-02-15T18:01:12.417Z,78.91
2023-02-15T18:03:57.891Z,79.21
2023-02-15T18:06:40.944Z,78.82
2023-02-15T18:09:26.677Z,78.80
2023-02-15T18:11:57.269Z,78.91
2023-02-15T18:14:27.517Z,78.67
2023-02-15T18:17:02.790Z,78.73
2023-02-15T18:19:33.108Z,78.74
2023-02-15T18:22:03.067Z,79.03
2023-02-15T18:24:33.291Z,79.04
2023-02-15T18:27:03.305Z,78.74
2023-02-15T18:29:33.767Z,78.73
2023-02-15T18:32:10.239Z,78.98
2023-02-15T18:34:42.282Z,78.72
2023-02-15T18:37:16.781Z,78.90
2023-02-15T18:39:49.369Z,78.63
2023-02-15T18:42:24.505Z,78.89
2023-02-15T18:44:57.987Z,78.77
2023-02-15T18:47:30.966Z,78.95
2023-02-15T18:50:00.913Z,78.94
2023-02-15T18:52:36.514Z,78.94
2023-02-15T18:55:16.482Z,78.99
2023-02-15T18:57:46.735Z,78.94
2023-02-15T19:00:21.964Z,79.28
2023-02-15T19:02:54.976Z,79.36
2023-02-15T19:05:27.662Z,79.16
2023-02-15T19:07:58.161Z,79.27
2023-02-15T19:10:30.637Z,79.13
2023-02-15T19:13:00.876Z,79.39
2023-02-15T19:15:34.681Z,79.12
2023-02-15T19:18:07.836Z,79.38
2023-02-15T19:20:41.374Z,79.22
2023-02-15T19:23:23.288Z,79.28
2023-02-15T19:25:54.624Z,79.29
2023-02-15T19:28:32.507Z,79.22
2023-02-15T19:31:03.178Z,79.37
2023-02-15T19:33:35.902Z,79.38
2023-02-15T19:36:08.385Z,79.44
2023-02-15T19:38:38.836Z,79.35
2023-02-15T19:41:11.290Z,79.24
2023-02-15T19:43:41.416Z,79.57
2023-02-15T19:46:20.017Z,79.23
2023-02-15T19:48:53.464Z,79.40
2023-02-15T19:51:26.532Z,79.33
2023-02-15T19:53:57.785Z,79.14
2023-02-15T19:56:27.835Z,79.21
2023-02-15T19:58:59.355Z,78.99
2023-02-15T20:01:29.455Z,79.24
2023-02-15T20:04:02.100Z,78.98
2023-02-15T20:06:32.387Z,78.92
2023-02-15T20:09:02.328Z,79.03
2023-02-15T20:11:32.515Z,78.86
2023-02-15T20:14:02.712Z,79.16
2023-02-15T20:16:32.597Z,79.18
2023-02-15T20:19:05.384Z,78.84
2023-02-15T20:21:36.237Z,78.92
2023-02-15T20:24:07.623Z,78.60
2023-02-15T20:26:38.782Z,78.57
2023-02-15T20:29:10.320Z,78.59
2023-02-15T20:31:40.881Z,78.51
2023-02-15T20:34:14.616Z,78.77
2023-02-15T20:36:44.940Z,78.77
2023-02-15T20:39:20.534Z,78.78
2023-02-15T20:41:50.722Z,78.65
2023-02-15T20:44:24.004Z,78.79
2023-02-15T20:46:56.786Z,78.93
2023-02-15T20:49:30.620Z,78.64
2023-02-15T20:52:01.104Z,78.51
2023-02-15T20:54:36.124Z,78.73
2023-02-15T20:57:07.329Z,78.63
2023-02-15T20:59:37.691Z,78.47
2023-02-15T21:02:19.060Z,78.27
2023-02-15T21:04:52.039Z,78.52
2023-02-15T21:07:23.872Z,78.64
2023-02-15T21:09:54.401Z,78.61
2023-02-15T21:12:24.765Z,78.78
2023-02-15T21:14:54.886Z,78.63
2023-02-15T21:17:24.762Z,78.69
2023-02-15T21:19:57.692Z,78.56
2023-02-15T21:22:27.527Z,78.12
2023-02-15T21:24:57.577Z,78.40
2023-02-15T21:27:27.626Z,78.18
2023-02-15T21:29:57.894Z,78.50
2023-02-15T21:32:28.032Z,78.36
2023-02-15T21:35:00.598Z,78.35
2023-02-15T21:37:35.072Z,78.36
2023-02-15T21:40:07.209Z,78.23
2023-02-15T21:42:49.681Z,78.10
2023-02-15T21:45:33.482Z,78.11
2023-02-15T21:48:03.735Z,78.43
2023-02-15T21:50:50.978Z,78.23
2023-02-15T21:53:25.131Z,78.03
2023-02-15T21:55:57.872Z,78.07
2023-02-15T21:58:31.509Z,78.51
2023-02-15T22:01:04.308Z,78.45
2023-02-15T22:03:36.560Z,78.47
2023-02-15T22:06:09.342Z,78.44
2023-02-15T22:08:39.492Z,78.56
2023-02-15T22:11:14.876Z,78.32
2023-02-15T22:13:47.873Z,78.51
2023-02-15T22:16:20.672Z,78.41
2023-02-15T22:18:51.821Z,78.43
2023-02-15T22:21:26.632Z,78.63
2023-02-15T22:23:56.599Z,78.59
2023-02-15T22:26:27.929Z,78.40
2023-02-15T22:28:59.897Z,78.43
2023-02-15T22:31:31.115Z,78.46
2023-02-15T22:34:01.259Z,78.58
2023-02-15T22:36:34.298Z,78.40
2023-02-15T22:39:04.375Z,78.56
2023-02-15T22:41:36.930Z,78.58
2023-02-15T22:44:06.948Z,78.38
2023-02-15T22:46:38.590Z,78.68
2023-02-15T22:49:08.800Z,78.57
2023-02-15T22:51:42.096Z,78.71
2023-02-15T22:54:12.372Z,78.56
2023-02-15T22:56:46.080Z,78.85
2023-02-15T22:59:24.064Z,78.58
2023-02-15T23:01:54.135Z,78.89
2023-02-15T23:04:27.640Z,78.57
2023-02-15T23:07:01.238Z,78.64
2023-02-15T23:09:31.181Z,78.50
2023-02-15T23:12:02.594Z,78.75
2023-02-15T23:14:37.532Z,78.49
2023-02-15T23:17:07.641Z,78.57
2023-02-15T23:19:37.612Z,78.69
2023-02-15T23:22:15.790Z,78.97
2023-02-15T23:24:51.903Z,78.96
2023-02-15T23:27:34.519Z,79.03
2023-02-15T23:30:06.548Z,79.01
2023-02-15T23:32:36.767Z,79.04
2023-02-15T23:35:16.495Z,79.20
2023-02-15T23:37:49.403Z,79.24
2023-02-15T23:40:33.560Z,79.20
2023-02-15T23:43:04.120Z,79.23
2023-02-15T23:45:40.048Z,79.37
2023-02-15T23:48:35.331Z,79.43
2023-02-15T23:51:05.710Z,79.45
2023-02-15T23:53:38.776Z,79.67
2023-02-15T23:56:09.364Z,79.47
2023-02-15T23:58:41.498Z,79.71
